sensor_id;sensor_type;location;lat;lon;timestamp;P1;durP1;ratioP1;P2;durP2;ratioP2
23624;SDS011;11989;47.872;12.014;2022-09-24T05:41:36;8.35;;;7.07;;
23624;SDS011;11989;47.872;12.014;2022-09-24T05:44:05;8.73;;;6.88;;
23624;SDS011;11989;47.872;12.014;2022-09-24T05:46:33;10.00;;;7.30;;
23624;SDS011;11989;47.872;12.014;2022-09-24T05:49:00;8.30;;;7.03;;
23624;SDS011;11989;47.872;12.014;2022-09-24T05:51:28;10.00;;;7.03;;
23624;SDS011;11989;47.872;12.014;2022-09-24T05:53:56;9.07;;;6.60;;
23624;SDS011;11989;47.872;12.014;2022-09-24T05:56:24;11.40;;;8.43;;
23624;SDS011;11989;47.872;12.014;2022-09-24T05:58:51;9.55;;;7.90;;
23624;SDS011;11989;47.872;12.014;2022-09-24T06:01:18;10.90;;;7.97;;
23624;SDS011;11989;47.872;12.014;2022-09-24T06:03:45;9.98;;;7.45;;
23624;SDS011;11989;47.872;12.014;2022-09-24T06:06:12;8.60;;;6.95;;
23624;SDS011;11989;47.872;12.014;2022-09-24T06:08:39;11.30;;;7.40;;
23624;SDS011;11989;47.872;12.014;2022-09-24T06:11:06;10.30;;;7.68;;
23624;SDS011;11989;47.872;12.014;2022-09-24T06:13:33;11.13;;;6.82;;
23624;SDS011;11989;47.872;12.014;2022-09-24T06:16:02;9.65;;;7.03;;
23624;SDS011;11989;47.872;12.014;2022-09-24T06:18:32;12.35;;;7.28;;
23624;SDS011;11989;47.872;12.014;2022-09-24T06:21:05;10.38;;;6.85;;
23624;SDS011;11989;47.872;12.014;2022-09-24T06:23:36;10.68;;;7.05;;
23624;SDS011;11989;47.872;12.014;2022-09-24T06:26:05;12.68;;;7.70;;
23624;SDS011;11989;47.872;12.014;2022-09-24T06:28:33;9.02;;;6.47;;
23624;SDS011;11989;47.872;12.014;2022-09-24T06:31:00;11.32;;;7.15;;
23624;SDS011;11989;47.872;12.014;2022-09-24T06:33:27;10.55;;;7.90;;
23624;SDS011;11989;47.872;12.014;2022-09-24T06:35:59;15.43;;;11.45;;
23624;SDS011;11989;47.872;12.014;2022-09-24T06:38:27;14.35;;;11.13;;
23624;SDS011;11989;47.872;12.014;2022-09-24T06:40:57;10.50;;;9.02;;
23624;SDS011;11989;47.872;12.014;2022-09-24T06:43:25;8.43;;;6.50;;
23624;SDS011;11989;47.872;12.014;2022-09-24T06:45:53;10.30;;;5.90;;
23624;SDS011;11989;47.872;12.014;2022-09-24T06:48:21;6.97;;;4.90;;
23624;SDS011;11989;47.872;12.014;2022-09-24T06:50:48;5.55;;;3.92;;
23624;SDS011;11989;47.872;12.014;2022-09-24T06:53:15;5.47;;;4.28;;
23624;SDS011;11989;47.872;12.014;2022-09-24T06:55:43;8.52;;;4.05;;
23624;SDS011;11989;47.872;12.014;2022-09-24T06:58:11;6.10;;;4.15;;
23624;SDS011;11989;47.872;12.014;2022-09-24T07:00:38;7.85;;;3.90;;
23624;SDS011;11989;47.872;12.014;2022-09-24T07:03:05;7.78;;;4.03;;
23624;SDS011;11989;47.872;12.014;2022-09-24T07:05:32;5.80;;;4.70;;
23624;SDS011;11989;47.872;12.014;2022-09-24T07:07:59;4.78;;;3.90;;
23624;SDS011;11989;47.872;12.014;2022-09-24T07:10:26;9.30;;;7.05;;
23624;SDS011;11989;47.872;12.014;2022-09-24T07:12:54;8.05;;;5.10;;
23624;SDS011;11989;47.872;12.014;2022-09-24T07:15:22;6.40;;;4.43;;
23624;SDS011;11989;47.872;12.014;2022-09-24T07:17:52;6.60;;;4.38;;
23624;SDS011;11989;47.872;12.014;2022-09-24T07:20:19;6.47;;;4.23;;
23624;SDS011;11989;47.872;12.014;2022-09-24T07:22:46;7.47;;;3.83;;
23624;SDS011;11989;47.872;12.014;2022-09-24T07:25:13;5.95;;;3.63;;
23624;SDS011;11989;47.872;12.014;2022-09-24T07:27:39;6.65;;;3.92;;
23624;SDS011;11989;47.872;12.014;2022-09-24T07:30:08;6.20;;;3.47;;
23624;SDS011;11989;47.872;12.014;2022-09-24T07:32:35;8.45;;;4.22;;
23624;SDS011;11989;47.872;12.014;2022-09-24T07:35:03;6.82;;;4.65;;
23624;SDS011;11989;47.872;12.014;2022-09-24T07:37:31;6.25;;;4.47;;
23624;SDS011;11989;47.872;12.014;2022-09-24T07:39:58;5.22;;;4.00;;
23624;SDS011;11989;47.872;12.014;2022-09-24T07:42:25;6.93;;;4.28;;
23624;SDS011;11989;47.872;12.014;2022-09-24T07:44:54;8.68;;;4.70;;
23624;SDS011;11989;47.872;12.014;2022-09-24T07:47:26;7.13;;;4.30;;
23624;SDS011;11989;47.872;12.014;2022-09-24T07:49:54;8.40;;;4.32;;
23624;SDS011;11989;47.872;12.014;2022-09-24T07:52:21;6.15;;;4.20;;
23624;SDS011;11989;47.872;12.014;2022-09-24T07:54:49;6.53;;;4.45;;
23624;SDS011;11989;47.872;12.014;2022-09-24T07:57:17;7.88;;;4.05;;
23624;SDS011;11989;47.872;12.014;2022-09-24T07:59:43;7.68;;;4.13;;
23624;SDS011;11989;47.872;12.014;2022-09-24T08:02:15;6.40;;;4.45;;
23624;SDS011;11989;47.872;12.014;2022-09-24T08:04:50;6.18;;;4.07;;
23624;SDS011;11989;47.872;12.014;2022-09-24T08:07:18;7.03;;;4.65;;
23624;SDS011;11989;47.872;12.014;2022-09-24T08:09:45;6.75;;;3.97;;
23624;SDS011;11989;47.872;12.014;2022-09-24T08:12:11;7.57;;;4.13;;
